Time,TemperatureF,DewpointF,PressureIn,WindDirection,WindDirectionDegrees,WindSpeedMPH,WindSpeedGustMPH,Humidity,HourlyPrecipIn,Conditions,Clouds,dailyrainin,SoftwareType,DateUTC
2013-03-11 00:00:00,41.2,28.4,30.00,West,269,10.0,12.0,60,0.00,,---,0.00,VWS V14.01,2013-03-11 05:00:00,
2013-03-11 00:05:00,41.1,28.3,29.99,West,266,11.0,12.0,60,0.00,,---,0.00,VWS V14.01,2013-03-11 05:05:00,
2013-03-11 00:10:00,40.9,28.1,29.99,WSW,258,7.0,7.0,60,0.00,,---,0.00,VWS V14.01,2013-03-11 05:10:00,
2013-03-11 00:15:00,40.8,28.0,29.99,NNW,338,6.0,7.0,60,0.00,,---,0.00,VWS V14.01,2013-03-11 05:15:00,
2013-03-11 00:20:00,40.5,28.1,29.99,WSW,256,5.0,6.0,61,0.00,,---,0.00,VWS V14.01,2013-03-11 05:20:00,
2013-03-11 00:25:00,40.3,28.3,29.99,WNW,284,11.0,13.0,62,0.00,,---,0.00,VWS V14.01,2013-03-11 05:25:00,
2013-03-11 00:30:00,40.2,28.2,29.99,West,267,10.0,10.0,62,0.00,,---,0.00,VWS V14.01,2013-03-11 05:30:00,
2013-03-11 00:35:00,40.1,27.8,29.98,West,276,3.0,6.0,61,0.00,,---,0.00,VWS V14.01,2013-03-11 05:35:00,
2013-03-11 00:40:00,39.9,27.6,29.99,West,267,11.0,11.0,61,0.00,,---,0.00,VWS V14.01,2013-03-11 05:40:00,
2013-03-11 00:45:00,39.8,27.5,29.98,WSW,248,12.0,12.0,61,0.00,,---,0.00,VWS V14.01,2013-03-11 05:45:00,
2013-03-11 00:50:00,39.6,27.3,29.98,NW,311,10.0,10.0,61,0.00,,---,0.00,VWS V14.01,2013-03-11 05:50:00,
2013-03-11 00:55:00,39.6,27.3,29.98,West,273,10.0,12.0,61,0.00,,---,0.00,VWS V14.01,2013-03-11 05:55:00,
2013-03-11 01:00:00,39.5,27.6,29.98,WSW,249,7.0,10.0,62,0.00,,---,0.00,VWS V14.01,2013-03-11 06:00:00,
2013-03-11 01:05:00,39.5,27.6,29.99,West,276,7.0,11.0,62,0.00,,---,0.00,VWS V14.01,2013-03-11 06:05:00,
2013-03-11 01:10:00,39.5,27.6,29.99,West,277,8.0,8.0,62,0.00,,---,0.00,VWS V14.01,2013-03-11 06:10:00,
2013-03-11 01:15:00,39.3,27.0,29.99,NW,304,8.0,8.0,61,0.00,,---,0.00,VWS V14.01,2013-03-11 06:15:00,
2013-03-11 01:20:00,39.3,27.4,30.00,West,272,5.0,5.0,62,0.00,,---,0.00,VWS V14.01,2013-03-11 06:20:00,
2013-03-11 01:25:00,39.3,27.4,30.00,West,262,7.0,7.0,62,0.00,,---,0.00,VWS V14.01,2013-03-11 06:25:00,
2013-03-11 01:30:00,39.2,27.3,30.01,West,259,5.0,5.0,62,0.00,,---,0.00,VWS V14.01,2013-03-11 06:30:00,
2013-03-11 01:35:00,39.2,27.3,30.01,North,355,7.0,7.0,62,0.00,,---,0.00,VWS V14.01,2013-03-11 06:35:00,
2013-03-11 01:40:00,39.1,27.6,30.01,WNW,294,11.0,11.0,63,0.00,,---,0.00,VWS V14.01,2013-03-11 06:40:00,
2013-03-11 01:45:00,38.8,27.3,30.01,West,265,10.0,11.0,63,0.00,,---,0.00,VWS V14.01,2013-03-11 06:45:00,
2013-03-11 01:50:00,38.6,27.1,30.02,West,269,6.0,8.0,63,0.00,,---,0.00,VWS V14.01,2013-03-11 06:50:00,
2013-03-11 01:55:00,38.3,26.8,30.02,West,265,3.0,5.0,63,0.00,,---,0.00,VWS V14.01,2013-03-11 06:55:00,
2013-03-11 02:00:00,38.2,26.7,30.02,WSW,253,7.0,7.0,63,0.00,,---,0.00,VWS V14.01,2013-03-11 07:00:00,
2013-03-11 02:05:00,38.0,26.5,30.03,West,273,5.0,6.0,63,0.00,,---,0.00,VWS V14.01,2013-03-11 07:05:00,
2013-03-11 02:10:00,37.8,26.4,30.03,West,275,5.0,5.0,63,0.00,,---,0.00,VWS V14.01,2013-03-11 07:10:00,
2013-03-11 02:15:00,37.6,26.5,30.03,WNW,283,6.0,6.0,64,0.00,,---,0.00,VWS V14.01,2013-03-11 07:15:00,
2013-03-11 02:20:00,37.3,26.6,30.02,West,272,5.0,6.0,65,0.00,,---,0.00,VWS V14.01,2013-03-11 07:20:00,
2013-03-11 02:25:00,37.2,26.2,30.02,WNW,301,5.0,5.0,64,0.00,,---,0.00,VWS V14.01,2013-03-11 07:25:00,
2013-03-11 02:30:00,37.0,25.6,30.03,West,266,5.0,5.0,63,0.00,,---,0.00,VWS V14.01,2013-03-11 07:30:00,
2013-03-11 02:35:00,36.9,25.5,30.03,West,276,3.0,3.0,63,0.00,,---,0.00,VWS V14.01,2013-03-11 07:35:00,
2013-03-11 02:40:00,36.8,25.4,30.03,WNW,283,2.0,2.0,63,0.00,,---,0.00,VWS V14.01,2013-03-11 07:40:00,
2013-03-11 02:45:00,36.6,25.6,30.02,West,277,1.0,2.0,64,0.00,,---,0.00,VWS V14.01,2013-03-11 07:45:00,
2013-03-11 02:50:00,36.3,25.7,30.02,West,280,2.0,3.0,65,0.00,,---,0.00,VWS V14.01,2013-03-11 07:50:00,
2013-03-11 02:55:00,36.2,25.6,30.02,WNW,282,1.0,1.0,65,0.00,,---,0.00,VWS V14.01,2013-03-11 07:55:00,
2013-03-11 03:00:00,35.9,25.7,30.02,WNW,282,3.0,5.0,66,0.00,,---,0.00,VWS V14.01,2013-03-11 08:00:00,
2013-03-11 03:05:00,35.6,25.4,30.03,WNW,282,0.0,0.0,66,0.00,,---,0.00,VWS V14.01,2013-03-11 08:05:00,
2013-03-11 03:10:00,35.3,25.8,30.02,WNW,282,0.0,0.0,68,0.00,,---,0.00,VWS V14.01,2013-03-11 08:10:00,
2013-03-11 03:15:00,34.9,26.1,30.02,WNW,282,0.0,0.0,70,0.00,,---,0.00,VWS V14.01,2013-03-11 08:15:00,
2013-03-11 03:20:00,34.0,26.3,30.02,WNW,282,0.0,0.0,73,0.00,,---,0.00,VWS V14.01,2013-03-11 08:20:00,
2013-03-11 03:25:00,33.2,25.8,30.02,WNW,282,0.0,0.0,74,0.00,,---,0.00,VWS V14.01,2013-03-11 08:25:00,
2013-03-11 03:30:00,32.7,26.0,30.02,WNW,282,0.0,0.0,76,0.00,,---,0.00,VWS V14.01,2013-03-11 08:30:00,
2013-03-11 03:35:00,32.4,26.0,30.02,WNW,282,0.0,0.0,77,0.00,,---,0.00,VWS V14.01,2013-03-11 08:35:00,
2013-03-11 03:40:00,31.8,26.0,30.02,WNW,282,0.0,0.0,79,0.00,,---,0.00,VWS V14.01,2013-03-11 08:40:00,
2013-03-11 03:45:00,31.5,25.8,30.01,WNW,282,0.0,0.0,79,0.00,,---,0.00,VWS V14.01,2013-03-11 08:45:00,
2013-03-11 03:50:00,31.3,25.9,30.01,WNW,282,0.0,0.0,80,0.00,,---,0.00,VWS V14.01,2013-03-11 08:50:00,
2013-03-11 03:55:00,31.2,26.1,30.01,WNW,282,0.0,0.0,81,0.00,,---,0.00,VWS V14.01,2013-03-11 08:55:00,
2013-03-11 04:00:00,30.9,25.8,30.01,WNW,282,0.0,0.0,81,0.00,,---,0.00,VWS V14.01,2013-03-11 09:00:00,
2013-03-11 04:05:00,31.2,25.8,30.01,WNW,282,0.0,0.0,80,0.00,,---,0.00,VWS V14.01,2013-03-11 09:05:00,
2013-03-11 04:10:00,31.6,25.9,30.01,WNW,282,0.0,0.0,79,0.00,,---,0.00,VWS V14.01,2013-03-11 09:10:00,
2013-03-11 04:15:00,31.8,25.4,30.01,WNW,282,0.0,0.0,77,0.00,,---,0.00,VWS V14.01,2013-03-11 09:15:00,
2013-03-11 04:20:00,31.9,25.5,30.01,WNW,282,0.0,0.0,77,0.00,,---,0.00,VWS V14.01,2013-03-11 09:20:00,
2013-03-11 04:25:00,32.1,25.7,30.01,West,276,2.0,3.0,77,0.00,,---,0.00,VWS V14.01,2013-03-11 09:25:00,
2013-03-11 04:30:00,32.2,25.5,30.00,West,276,0.0,0.0,76,0.00,,---,0.00,VWS V14.01,2013-03-11 09:30:00,
2013-03-11 04:35:00,32.1,25.7,30.00,West,276,0.0,0.0,77,0.00,,---,0.00,VWS V14.01,2013-03-11 09:35:00,
2013-03-11 04:40:00,31.6,25.9,30.00,West,276,0.0,0.0,79,0.00,,---,0.00,VWS V14.01,2013-03-11 09:40:00,
2013-03-11 04:45:00,31.2,25.8,30.00,West,276,0.0,0.0,80,0.00,,---,0.00,VWS V14.01,2013-03-11 09:45:00,
2013-03-11 04:50:00,30.9,25.8,30.00,West,276,0.0,0.0,81,0.00,,---,0.00,VWS V14.01,2013-03-11 09:50:00,
2013-03-11 04:55:00,30.4,25.6,30.01,West,276,0.0,0.0,82,0.00,,---,0.00,VWS V14.01,2013-03-11 09:55:00,
2013-03-11 05:00:00,30.3,25.5,30.01,West,276,0.0,0.0,82,0.00,,---,0.00,VWS V14.01,2013-03-11 10:00:00,
2013-03-11 05:05:00,30.3,25.5,30.01,West,276,0.0,0.0,82,0.00,,---,0.00,VWS V14.01,2013-03-11 10:05:00,
2013-03-11 05:10:00,30.3,25.5,30.01,West,276,0.0,0.0,82,0.00,,---,0.00,VWS V14.01,2013-03-11 10:10:00,
2013-03-11 05:15:00,30.1,25.3,30.01,West,276,0.0,0.0,82,0.00,,---,0.00,VWS V14.01,2013-03-11 10:15:00,
2013-03-11 05:20:00,30.1,25.3,30.01,West,276,0.0,0.0,82,0.00,,---,0.00,VWS V14.01,2013-03-11 10:20:00,
2013-03-11 05:25:00,30.0,25.2,30.01,West,276,0.0,0.0,82,0.00,,---,0.00,VWS V14.01,2013-03-11 10:25:00,
2013-03-11 05:30:00,29.8,25.3,30.01,West,276,0.0,0.0,83,0.00,,---,0.00,VWS V14.01,2013-03-11 10:30:00,
2013-03-11 05:35:00,29.7,25.2,30.01,West,276,0.0,0.0,83,0.00,,---,0.00,VWS V14.01,2013-03-11 10:35:00,
2013-03-11 05:40:00,29.4,25.2,30.01,West,276,0.0,0.0,84,0.00,,---,0.00,VWS V14.01,2013-03-11 10:40:00,
2013-03-11 05:45:00,29.3,25.1,30.02,West,276,0.0,0.0,84,0.00,,---,0.00,VWS V14.01,2013-03-11 10:45:00,
2013-03-11 05:50:00,29.3,25.1,30.02,West,276,0.0,0.0,84,0.00,,---,0.00,VWS V14.01,2013-03-11 10:50:00,
2013-03-11 05:55:00,29.1,25.2,30.02,West,276,0.0,0.0,85,0.00,,---,0.00,VWS V14.01,2013-03-11 10:55:00,
2013-03-11 06:00:00,29.1,25.2,30.02,West,276,0.0,0.0,85,0.00,,---,0.00,VWS V14.01,2013-03-11 11:00:00,
2013-03-11 06:05:00,29.1,25.2,30.02,West,276,0.0,0.0,85,0.00,,---,0.00,VWS V14.01,2013-03-11 11:05:00,
2013-03-11 06:10:00,29.3,25.4,30.02,West,276,0.0,0.0,85,0.00,,---,0.00,VWS V14.01,2013-03-11 11:10:00,
2013-03-11 06:15:00,29.3,25.4,30.02,West,276,0.0,0.0,85,0.00,,---,0.00,VWS V14.01,2013-03-11 11:15:00,
2013-03-11 06:20:00,29.3,25.4,30.02,West,276,0.0,0.0,85,0.00,,---,0.00,VWS V14.01,2013-03-11 11:20:00,
2013-03-11 06:25:00,29.3,25.4,30.02,West,276,0.0,0.0,85,0.00,,---,0.00,VWS V14.01,2013-03-11 11:25:00,
2013-03-11 06:30:00,29.4,25.5,30.02,West,275,0.0,0.0,85,0.00,,---,0.00,VWS V14.01,2013-03-11 11:30:00,
2013-03-11 06:35:00,29.5,25.3,30.02,West,275,0.0,0.0,84,0.00,,---,0.00,VWS V14.01,2013-03-11 11:35:00,
2013-03-11 06:40:00,29.7,25.5,30.02,West,275,0.0,0.0,84,0.00,,---,0.00,VWS V14.01,2013-03-11 11:40:00,
2013-03-11 06:45:00,29.8,25.6,30.02,West,275,0.0,0.0,84,0.00,,---,0.00,VWS V14.01,2013-03-11 11:45:00,
2013-03-11 06:50:00,29.8,25.3,30.02,West,275,0.0,0.0,83,0.00,,---,0.00,VWS V14.01,2013-03-11 11:50:00,
2013-03-11 06:55:00,29.7,25.5,30.02,West,275,0.0,0.0,84,0.00,,---,0.00,VWS V14.01,2013-03-11 11:55:00,
2013-03-11 07:00:00,29.7,25.5,30.02,West,275,0.0,0.0,84,0.00,,---,0.00,VWS V14.01,2013-03-11 12:00:00,
2013-03-11 07:05:00,29.7,25.5,30.02,West,275,0.0,0.0,84,0.00,,---,0.00,VWS V14.01,2013-03-11 12:05:00,
2013-03-11 07:10:00,29.7,25.5,30.02,West,275,0.0,0.0,84,0.00,,---,0.00,VWS V14.01,2013-03-11 12:10:00,
2013-03-11 07:15:00,29.8,25.3,30.02,West,275,0.0,0.0,83,0.00,,---,0.00,VWS V14.01,2013-03-11 12:15:00,
2013-03-11 07:20:00,30.0,25.5,30.02,West,275,0.0,0.0,83,0.00,,---,0.00,VWS V14.01,2013-03-11 12:20:00,
2013-03-11 07:25:00,30.1,25.3,30.02,West,275,0.0,0.0,82,0.00,,---,0.00,VWS V14.01,2013-03-11 12:25:00,
2013-03-11 07:30:00,30.1,25.6,30.03,West,275,0.0,0.0,83,0.00,,---,0.00,VWS V14.01,2013-03-11 12:30:00,
2013-03-11 07:35:00,30.1,25.3,30.03,WNW,283,0.0,0.0,82,0.00,,---,0.00,VWS V14.01,2013-03-11 12:35:00,
2013-03-11 07:40:00,30.1,25.3,30.03,WNW,283,0.0,0.0,82,0.00,,---,0.00,VWS V14.01,2013-03-11 12:40:00,
2013-03-11 07:45:00,30.1,25.3,30.03,WNW,283,0.0,0.0,82,0.00,,---,0.00,VWS V14.01,2013-03-11 12:45:00,
2013-03-11 07:50:00,30.3,25.5,30.03,WSW,253,3.0,3.0,82,0.00,,---,0.00,VWS V14.01,2013-03-11 12:50:00,
2013-03-11 07:55:00,30.4,25.6,30.03,WSW,253,0.0,0.0,82,0.00,,---,0.00,VWS V14.01,2013-03-11 12:55:00,
2013-03-11 08:00:00,30.7,25.6,30.04,WSW,253,0.0,0.0,81,0.00,,---,0.00,VWS V14.01,2013-03-11 13:00:00,
2013-03-11 08:05:00,31.0,25.6,30.04,WSW,253,0.0,0.0,80,0.00,,---,0.00,VWS V14.01,2013-03-11 13:05:00,
2013-03-11 08:10:00,31.6,26.1,30.04,West,260,0.0,0.0,80,0.00,,---,0.00,VWS V14.01,2013-03-11 13:10:00,
2013-03-11 08:15:00,32.2,26.1,30.04,WNW,290,0.0,0.0,78,0.00,,---,0.00,VWS V14.01,2013-03-11 13:15:00,
2013-03-11 08:20:00,32.5,26.1,30.04,WNW,283,0.0,0.0,77,0.00,,---,0.00,VWS V14.01,2013-03-11 13:20:00,
2013-03-11 08:25:00,33.1,26.4,30.04,West,265,5.0,5.0,76,0.00,,---,0.00,VWS V14.01,2013-03-11 13:25:00,
2013-03-11 08:30:00,33.5,26.4,30.04,WNW,289,2.0,2.0,75,0.00,,---,0.00,VWS V14.01,2013-03-11 13:30:00,
2013-03-11 08:35:00,33.8,26.4,30.04,West,272,2.0,5.0,74,0.00,,---,0.00,VWS V14.01,2013-03-11 13:35:00,
2013-03-11 08:40:00,34.3,26.9,30.04,WSW,255,2.0,3.0,74,0.00,,---,0.00,VWS V14.01,2013-03-11 13:40:00,
2013-03-11 08:45:00,34.7,27.0,30.04,SW,227,1.0,2.0,73,0.00,,---,0.00,VWS V14.01,2013-03-11 13:45:00,
2013-03-11 08:50:00,35.0,27.2,30.04,West,266,2.0,3.0,73,0.00,,---,0.00,VWS V14.01,2013-03-11 13:50:00,
2013-03-11 08:55:00,35.3,26.9,30.04,West,266,6.0,12.0,71,0.00,,---,0.00,VWS V14.01,2013-03-11 13:55:00,
2013-03-11 09:00:00,35.5,26.7,30.04,West,270,6.0,6.0,70,0.00,,---,0.00,VWS V14.01,2013-03-11 14:00:00,
2013-03-11 09:05:00,35.9,27.1,30.04,WNW,284,6.0,6.0,70,0.00,,---,0.00,VWS V14.01,2013-03-11 14:05:00,
2013-03-11 09:10:00,35.9,27.1,30.04,West,280,8.0,8.0,70,0.00,,---,0.00,VWS V14.01,2013-03-11 14:10:00,
2013-03-11 09:15:00,36.5,27.7,30.04,NW,307,3.0,3.0,70,0.00,,---,0.00,VWS V14.01,2013-03-11 14:15:00,
2013-03-11 09:20:00,36.5,27.7,30.04,WNW,287,2.0,2.0,70,0.00,,---,0.00,VWS V14.01,2013-03-11 14:20:00,
2013-03-11 09:25:00,36.5,27.7,30.04,West,266,11.0,11.0,70,0.00,,---,0.00,VWS V14.01,2013-03-11 14:25:00,
2013-03-11 09:30:00,36.5,27.7,30.04,North,351,6.0,6.0,70,0.00,,---,0.00,VWS V14.01,2013-03-11 14:30:00,
2013-03-11 09:35:00,37.3,28.4,30.05,NW,307,3.0,3.0,70,0.00,,---,0.00,VWS V14.01,2013-03-11 14:35:00,
2013-03-11 09:40:00,37.3,28.4,30.05,SW,229,8.0,8.0,70,0.00,,---,0.00,VWS V14.01,2013-03-11 14:40:00,
2013-03-11 09:45:00,37.3,28.4,30.05,WNW,293,8.0,8.0,70,0.00,,---,0.00,VWS V14.01,2013-03-11 14:45:00,
2013-03-11 09:50:00,37.3,28.4,30.05,WNW,296,3.0,3.0,70,0.00,,---,0.00,VWS V14.01,2013-03-11 14:50:00,
2013-03-11 09:55:00,38.8,29.9,30.05,WSW,256,5.0,5.0,70,0.00,,---,0.00,VWS V14.01,2013-03-11 14:55:00,
2013-03-11 10:00:00,38.8,29.9,30.05,NW,307,5.0,5.0,70,0.00,,---,0.00,VWS V14.01,2013-03-11 15:00:00,
2013-03-11 10:05:00,38.8,29.9,30.05,NW,314,7.0,7.0,70,0.00,,---,0.00,VWS V14.01,2013-03-11 15:05:00,
2013-03-11 10:10:00,39.5,30.5,30.05,NW,307,5.0,5.0,70,0.00,,---,0.00,VWS V14.01,2013-03-11 15:10:00,
2013-03-11 10:15:00,39.5,30.5,30.05,NW,307,5.0,5.0,70,0.00,,---,0.00,VWS V14.01,2013-03-11 15:15:00,
2013-03-11 10:20:00,39.5,30.5,30.05,NW,311,6.0,6.0,70,0.00,,---,0.00,VWS V14.01,2013-03-11 15:20:00,
2013-03-11 10:25:00,40.3,31.3,30.05,WNW,303,7.0,7.0,70,0.00,,---,0.00,VWS V14.01,2013-03-11 15:25:00,
2013-03-11 10:30:00,40.5,31.5,30.05,WNW,284,14.0,14.0,70,0.00,,---,0.00,VWS V14.01,2013-03-11 15:30:00,
2013-03-11 10:35:00,40.6,31.6,30.05,NW,315,5.0,5.0,70,0.00,,---,0.00,VWS V14.01,2013-03-11 15:35:00,
2013-03-11 10:40:00,41.1,32.1,30.05,WSW,258,7.0,11.0,70,0.00,,---,0.00,VWS V14.01,2013-03-11 15:40:00,
2013-03-11 10:45:00,40.9,27.7,30.05,WNW,297,13.0,14.0,59,0.00,,---,0.00,VWS V14.01,2013-03-11 15:45:00,
2013-03-11 10:50:00,41.1,28.7,30.05,West,267,7.0,7.0,61,0.00,,---,0.00,VWS V14.01,2013-03-11 15:50:00,
2013-03-11 10:55:00,41.9,28.6,30.05,West,276,7.0,10.0,59,0.00,,---,0.00,VWS V14.01,2013-03-11 15:55:00,
2013-03-11 11:00:00,42.3,28.6,30.05,West,262,6.0,6.0,58,0.00,,---,0.00,VWS V14.01,2013-03-11 16:00:00,
2013-03-11 11:05:00,42.9,29.2,30.05,WNW,289,6.0,11.0,58,0.00,,---,0.00,VWS V14.01,2013-03-11 16:05:00,
2013-03-11 11:10:00,42.6,28.5,30.05,West,273,11.0,11.0,57,0.00,,---,0.00,VWS V14.01,2013-03-11 16:10:00,
2013-03-11 11:15:00,42.5,28.4,30.05,NW,306,3.0,3.0,57,0.00,,---,0.00,VWS V14.01,2013-03-11 16:15:00,
2013-03-11 11:20:00,42.6,28.5,30.05,WNW,286,7.0,7.0,57,0.00,,---,0.00,VWS V14.01,2013-03-11 16:20:00,
2013-03-11 11:25:00,42.8,28.2,30.05,WNW,299,5.0,5.0,56,0.00,,---,0.00,VWS V14.01,2013-03-11 16:25:00,
2013-03-11 11:30:00,43.1,28.0,30.05,West,267,6.0,6.0,55,0.00,,---,0.00,VWS V14.01,2013-03-11 16:30:00,
2013-03-11 11:35:00,43.2,28.1,30.05,NW,308,5.0,5.0,55,0.00,,---,0.00,VWS V14.01,2013-03-11 16:35:00,
2013-03-11 11:40:00,43.5,28.4,30.04,WNW,289,5.0,5.0,55,0.00,,---,0.00,VWS V14.01,2013-03-11 16:40:00,
2013-03-11 11:45:00,43.6,29.0,30.04,WSW,241,5.0,7.0,56,0.00,,---,0.00,VWS V14.01,2013-03-11 16:45:00,
2013-03-11 11:50:00,44.2,28.6,30.05,West,266,7.0,12.0,54,0.00,,---,0.00,VWS V14.01,2013-03-11 16:50:00,
2013-03-11 11:55:00,43.8,28.2,30.04,West,265,5.0,10.0,54,0.00,,---,0.00,VWS V14.01,2013-03-11 16:55:00,
2013-03-11 12:00:00,44.2,28.2,30.04,SW,232,2.0,5.0,53,0.00,,---,0.00,VWS V14.01,2013-03-11 17:00:00,
2013-03-11 12:05:00,44.6,28.5,30.04,West,266,7.0,7.0,53,0.00,,---,0.00,VWS V14.01,2013-03-11 17:05:00,
2013-03-11 12:10:00,45.2,29.1,30.04,South,191,5.0,5.0,53,0.00,,---,0.00,VWS V14.01,2013-03-11 17:10:00,
2013-03-11 12:15:00,45.8,29.7,30.03,NW,313,7.0,7.0,53,0.00,,---,0.00,VWS V14.01,2013-03-11 17:15:00,
2013-03-11 12:20:00,45.5,28.4,30.04,WNW,287,3.0,5.0,51,0.00,,---,0.00,VWS V14.01,2013-03-11 17:20:00,
2013-03-11 12:25:00,45.7,28.6,30.04,South,176,12.0,12.0,51,0.00,,---,0.00,VWS V14.01,2013-03-11 17:25:00,
2013-03-11 12:30:00,45.8,27.7,30.04,WSW,242,6.0,7.0,49,0.00,,---,0.00,VWS V14.01,2013-03-11 17:30:00,
2013-03-11 12:35:00,45.8,27.2,30.03,SW,232,5.0,5.0,48,0.00,,---,0.00,VWS V14.01,2013-03-11 17:35:00,
2013-03-11 12:40:00,46.2,27.6,30.03,West,270,11.0,12.0,48,0.00,,---,0.00,VWS V14.01,2013-03-11 17:40:00,
2013-03-11 12:45:00,46.4,27.8,30.03,SW,214,7.0,8.0,48,0.00,,---,0.00,VWS V14.01,2013-03-11 17:45:00,
2013-03-11 12:50:00,46.4,27.8,30.03,West,269,8.0,8.0,48,0.00,,---,0.00,VWS V14.01,2013-03-11 17:50:00,
2013-03-11 12:55:00,46.4,27.8,30.03,WNW,300,6.0,6.0,48,0.00,,---,0.00,VWS V14.01,2013-03-11 17:55:00,
2013-03-11 13:00:00,46.4,27.8,30.03,West,273,8.0,8.0,48,0.00,,---,0.00,VWS V14.01,2013-03-11 18:00:00,
2013-03-11 13:05:00,46.7,28.1,30.02,NW,306,5.0,5.0,48,0.00,,---,0.00,VWS V14.01,2013-03-11 18:05:00,
2013-03-11 13:10:00,47.3,28.1,30.02,NNW,335,6.0,6.0,47,0.00,,---,0.00,VWS V14.01,2013-03-11 18:10:00,
2013-03-11 13:15:00,47.6,29.9,30.02,West,267,14.0,14.0,50,0.00,,---,0.00,VWS V14.01,2013-03-11 18:15:00,
2013-03-11 13:20:00,47.7,31.0,30.02,SW,231,6.0,7.0,52,0.00,,---,0.00,VWS V14.01,2013-03-11 18:20:00,
2013-03-11 13:25:00,47.3,29.1,30.02,WNW,287,1.0,3.0,49,0.00,,---,0.00,VWS V14.01,2013-03-11 18:25:00,
2013-03-11 13:30:00,47.0,28.9,30.02,WSW,253,3.0,10.0,49,0.00,,---,0.00,VWS V14.01,2013-03-11 18:30:00,
2013-03-11 13:35:00,47.1,29.9,30.02,West,260,6.0,10.0,51,0.00,,---,0.00,VWS V14.01,2013-03-11 18:35:00,
2013-03-11 13:40:00,48.0,31.2,30.02,SW,219,12.0,12.0,52,0.00,,---,0.00,VWS V14.01,2013-03-11 18:40:00,
2013-03-11 13:45:00,47.9,31.1,30.01,West,272,12.0,12.0,52,0.00,,---,0.00,VWS V14.01,2013-03-11 18:45:00,
2013-03-11 13:50:00,47.6,28.4,30.02,West,275,11.0,11.0,47,0.00,,---,0.00,VWS V14.01,2013-03-11 18:50:00,
2013-03-11 13:55:00,48.2,29.5,30.01,SW,228,7.0,7.0,48,0.00,,---,0.00,VWS V14.01,2013-03-11 18:55:00,
2013-03-11 14:00:00,48.2,29.5,30.01,West,270,8.0,8.0,48,0.00,,---,0.00,VWS V14.01,2013-03-11 19:00:00,
2013-03-11 14:05:00,48.2,30.9,30.01,NNW,330,8.0,11.0,51,0.00,,---,0.00,VWS V14.01,2013-03-11 19:05:00,
2013-03-11 14:10:00,48.6,29.8,30.01,West,269,7.0,12.0,48,0.00,,---,0.00,VWS V14.01,2013-03-11 19:10:00,
2013-03-11 14:15:00,48.6,29.8,30.01,SSW,208,6.0,6.0,48,0.00,,---,0.00,VWS V14.01,2013-03-11 19:15:00,
2013-03-11 14:20:00,48.8,31.0,30.01,South,188,8.0,10.0,50,0.00,,---,0.00,VWS V14.01,2013-03-11 19:20:00,
2013-03-11 14:25:00,49.2,29.9,30.00,SSW,207,6.0,6.0,47,0.00,,---,0.00,VWS V14.01,2013-03-11 19:25:00,
2013-03-11 14:30:00,49.9,32.0,30.00,SW,214,8.0,8.0,50,0.00,,---,0.00,VWS V14.01,2013-03-11 19:30:00,
2013-03-11 14:35:00,49.6,30.7,30.00,West,277,6.0,10.0,48,0.00,,---,0.00,VWS V14.01,2013-03-11 19:35:00,
2013-03-11 14:40:00,49.6,30.2,29.99,West,272,10.0,10.0,47,0.00,,---,0.00,VWS V14.01,2013-03-11 19:40:00,
2013-03-11 14:45:00,49.6,30.2,29.99,SW,235,5.0,5.0,47,0.00,,---,0.00,VWS V14.01,2013-03-11 19:45:00,
2013-03-11 14:50:00,50.2,30.8,29.99,West,266,5.0,7.0,47,0.00,,---,0.00,VWS V14.01,2013-03-11 19:50:00,
2013-03-11 14:55:00,49.8,30.4,29.98,West,262,12.0,12.0,47,0.00,,---,0.00,VWS V14.01,2013-03-11 19:55:00,
2013-03-11 15:00:00,50.4,31.0,29.98,WSW,258,1.0,7.0,47,0.00,,---,0.00,VWS V14.01,2013-03-11 20:00:00,
2013-03-11 15:05:00,51.0,29.3,29.98,WNW,294,8.0,13.0,43,0.00,,---,0.00,VWS V14.01,2013-03-11 20:05:00,
2013-03-11 15:10:00,51.1,28.8,29.98,WSW,256,3.0,8.0,42,0.00,,---,0.00,VWS V14.01,2013-03-11 20:10:00,
2013-03-11 15:15:00,51.6,28.1,29.98,West,276,17.0,17.0,40,0.00,,---,0.00,VWS V14.01,2013-03-11 20:15:00,
2013-03-11 15:20:00,51.1,27.6,29.98,SSW,210,2.0,8.0,40,0.00,,---,0.00,VWS V14.01,2013-03-11 20:20:00,
2013-03-11 15:25:00,51.3,28.4,29.98,South,190,5.0,7.0,41,0.00,,---,0.00,VWS V14.01,2013-03-11 20:25:00,
2013-03-11 15:30:00,52.0,27.8,29.98,SW,222,1.0,5.0,39,0.00,,---,0.00,VWS V14.01,2013-03-11 20:30:00,
2013-03-11 15:35:00,51.9,28.4,29.98,West,273,13.0,13.0,40,0.00,,---,0.00,VWS V14.01,2013-03-11 20:35:00,
2013-03-11 15:40:00,51.6,28.1,29.98,SW,217,6.0,7.0,40,0.00,,---,0.00,VWS V14.01,2013-03-11 20:40:00,
2013-03-11 15:45:00,51.6,28.1,29.97,WNW,287,3.0,3.0,40,0.00,,---,0.00,VWS V14.01,2013-03-11 20:45:00,
2013-03-11 15:50:00,51.7,28.2,29.97,West,273,7.0,7.0,40,0.00,,---,0.00,VWS V14.01,2013-03-11 20:50:00,
2013-03-11 15:55:00,52.2,27.4,29.97,WSW,255,5.0,11.0,38,0.00,,---,0.00,VWS V14.01,2013-03-11 20:55:00,
2013-03-11 16:00:00,52.2,27.4,29.96,NNW,330,3.0,6.0,38,0.00,,---,0.00,VWS V14.01,2013-03-11 21:00:00,
2013-03-11 16:05:00,52.9,27.4,29.96,North,351,5.0,7.0,37,0.00,,---,0.00,VWS V14.01,2013-03-11 21:05:00,
2013-03-11 16:10:00,53.2,27.6,29.96,West,272,5.0,6.0,37,0.00,,---,0.00,VWS V14.01,2013-03-11 21:10:00,
2013-03-11 16:15:00,52.9,27.4,29.96,West,280,7.0,8.0,37,0.00,,---,0.00,VWS V14.01,2013-03-11 21:15:00,
2013-03-11 16:20:00,52.9,26.0,29.96,WSW,253,8.0,10.0,35,0.00,,---,0.00,VWS V14.01,2013-03-11 21:20:00,
2013-03-11 16:25:00,52.9,26.0,29.96,West,279,11.0,11.0,35,0.00,,---,0.00,VWS V14.01,2013-03-11 21:25:00,
2013-03-11 16:30:00,52.8,23.8,29.96,WNW,303,11.0,11.0,32,0.00,,---,0.00,VWS V14.01,2013-03-11 21:30:00,
2013-03-11 16:35:00,52.5,26.3,29.96,West,273,5.0,7.0,36,0.00,,---,0.00,VWS V14.01,2013-03-11 21:35:00,
2013-03-11 16:40:00,52.9,26.7,29.96,WNW,283,5.0,6.0,36,0.00,,---,0.00,VWS V14.01,2013-03-11 21:40:00,
2013-03-11 16:45:00,52.8,25.2,29.96,West,275,7.0,8.0,34,0.00,,---,0.00,VWS V14.01,2013-03-11 21:45:00,
2013-03-11 16:50:00,52.8,25.9,29.96,West,267,6.0,10.0,35,0.00,,---,0.00,VWS V14.01,2013-03-11 21:50:00,
2013-03-11 16:55:00,52.9,26.0,29.96,West,270,5.0,7.0,35,0.00,,---,0.00,VWS V14.01,2013-03-11 21:55:00,
2013-03-11 17:00:00,53.2,26.3,29.96,West,280,6.0,11.0,35,0.00,,---,0.00,VWS V14.01,2013-03-11 22:00:00,
2013-03-11 17:05:00,53.2,26.3,29.96,WNW,284,7.0,7.0,35,0.00,,---,0.00,VWS V14.01,2013-03-11 22:05:00,
2013-03-11 17:10:00,53.3,24.2,29.96,West,273,6.0,8.0,32,0.00,,---,0.00,VWS V14.01,2013-03-11 22:10:00,
2013-03-11 17:15:00,53.1,24.0,29.96,SSW,201,5.0,6.0,32,0.00,,---,0.00,VWS V14.01,2013-03-11 22:15:00,
2013-03-11 17:20:00,53.3,23.5,29.96,WSW,258,8.0,8.0,31,0.00,,---,0.00,VWS V14.01,2013-03-11 22:20:00,
2013-03-11 17:25:00,53.2,23.4,29.96,West,275,12.0,12.0,31,0.00,,---,0.00,VWS V14.01,2013-03-11 22:25:00,
2013-03-11 17:30:00,53.3,23.5,29.96,SSW,205,6.0,6.0,31,0.00,,---,0.00,VWS V14.01,2013-03-11 22:30:00,
2013-03-11 17:35:00,53.3,23.5,29.96,West,267,7.0,8.0,31,0.00,,---,0.00,VWS V14.01,2013-03-11 22:35:00,
2013-03-11 17:40:00,52.9,23.1,29.96,WNW,282,5.0,13.0,31,0.00,,---,0.00,VWS V14.01,2013-03-11 22:40:00,
2013-03-11 17:45:00,52.8,23.0,29.96,SW,215,2.0,7.0,31,0.00,,---,0.00,VWS V14.01,2013-03-11 22:45:00,
2013-03-11 17:50:00,52.8,23.8,29.96,West,279,2.0,6.0,32,0.00,,---,0.00,VWS V14.01,2013-03-11 22:50:00,
2013-03-11 17:55:00,52.6,23.6,29.96,SW,228,6.0,8.0,32,0.00,,---,0.00,VWS V14.01,2013-03-11 22:55:00,
2013-03-11 18:00:00,52.6,23.6,29.96,WNW,287,2.0,2.0,32,0.00,,---,0.00,VWS V14.01,2013-03-11 23:00:00,
2013-03-11 18:05:00,52.6,23.6,29.96,West,276,7.0,7.0,32,0.00,,---,0.00,VWS V14.01,2013-03-11 23:05:00,
2013-03-11 18:10:00,52.8,24.5,29.97,West,266,8.0,8.0,33,0.00,,---,0.00,VWS V14.01,2013-03-11 23:10:00,
2013-03-11 18:15:00,52.6,24.3,29.96,West,272,3.0,3.0,33,0.00,,---,0.00,VWS V14.01,2013-03-11 23:15:00,
2013-03-11 18:20:00,52.6,24.3,29.96,West,260,6.0,6.0,33,0.00,,---,0.00,VWS V14.01,2013-03-11 23:20:00,
2013-03-11 18:25:00,52.3,24.8,29.96,SSW,204,2.0,3.0,34,0.00,,---,0.00,VWS V14.01,2013-03-11 23:25:00,
2013-03-11 18:30:00,52.0,24.5,29.97,WSW,243,5.0,5.0,34,0.00,,---,0.00,VWS V14.01,2013-03-11 23:30:00,
2013-03-11 18:35:00,52.0,23.8,29.97,WNW,291,5.0,5.0,33,0.00,,---,0.00,VWS V14.01,2013-03-11 23:35:00,
2013-03-11 18:40:00,52.0,25.2,29.97,WSW,242,5.0,5.0,35,0.00,,---,0.00,VWS V14.01,2013-03-11 23:40:00,
2013-03-11 18:45:00,51.7,25.0,29.97,West,262,3.0,3.0,35,0.00,,---,0.00,VWS V14.01,2013-03-11 23:45:00,
2013-03-11 18:50:00,51.6,24.9,29.98,West,267,1.0,3.0,35,0.00,,---,0.00,VWS V14.01,2013-03-11 23:50:00,
2013-03-11 18:55:00,51.3,24.6,29.98,West,272,2.0,7.0,35,0.00,,---,0.00,VWS V14.01,2013-03-11 23:55:00,
2013-03-11 19:00:00,50.8,26.1,29.98,West,272,1.0,2.0,38,0.00,,---,0.00,VWS V14.01,2013-03-12 00:00:00,
2013-03-11 19:05:00,50.4,25.8,29.98,West,272,2.0,3.0,38,0.00,,---,0.00,VWS V14.01,2013-03-12 00:05:00,
2013-03-11 19:10:00,49.6,26.9,29.98,West,272,2.0,2.0,41,0.00,,---,0.00,VWS V14.01,2013-03-12 00:10:00,
2013-03-11 19:15:00,48.9,28.5,29.97,West,272,1.0,1.0,45,0.00,,---,0.00,VWS V14.01,2013-03-12 00:15:00,
2013-03-11 19:20:00,48.2,28.9,29.98,West,272,1.0,1.0,47,0.00,,---,0.00,VWS V14.01,2013-03-12 00:20:00,
2013-03-11 19:25:00,47.6,28.9,29.97,West,272,1.0,2.0,48,0.00,,---,0.00,VWS V14.01,2013-03-12 00:25:00,
2013-03-11 19:30:00,47.0,27.8,29.97,West,272,1.0,1.0,47,0.00,,---,0.00,VWS V14.01,2013-03-12 00:30:00,
2013-03-11 19:35:00,45.8,26.7,29.98,West,272,1.0,1.0,47,0.00,,---,0.00,VWS V14.01,2013-03-12 00:35:00,
2013-03-11 19:40:00,44.8,31.4,29.98,West,272,0.0,0.0,59,0.00,,---,0.00,VWS V14.01,2013-03-12 00:40:00,
2013-03-11 19:45:00,43.8,30.4,29.99,West,272,0.0,0.0,59,0.00,,---,0.00,VWS V14.01,2013-03-12 00:45:00,
2013-03-11 19:50:00,43.1,29.8,29.99,West,272,0.0,0.0,59,0.00,,---,0.00,VWS V14.01,2013-03-12 00:50:00,
2013-03-11 19:55:00,42.3,31.4,29.98,West,272,0.0,0.0,65,0.00,,---,0.00,VWS V14.01,2013-03-12 00:55:00,
2013-03-11 20:00:00,41.6,31.5,29.99,West,272,0.0,0.0,67,0.00,,---,0.00,VWS V14.01,2013-03-12 01:00:00,
2013-03-11 20:05:00,41.1,31.0,29.98,West,272,0.0,0.0,67,0.00,,---,0.00,VWS V14.01,2013-03-12 01:05:00,
2013-03-11 20:10:00,40.3,31.3,29.98,West,272,0.0,0.0,70,0.00,,---,0.00,VWS V14.01,2013-03-12 01:10:00,
2013-03-11 20:15:00,39.3,30.7,29.98,West,272,0.0,0.0,71,0.00,,---,0.00,VWS V14.01,2013-03-12 01:15:00,
2013-03-11 20:20:00,38.8,30.6,29.98,West,272,0.0,0.0,72,0.00,,---,0.00,VWS V14.01,2013-03-12 01:20:00,
2013-03-11 20:25:00,38.0,30.5,29.99,West,272,0.0,0.0,74,0.00,,---,0.00,VWS V14.01,2013-03-12 01:25:00,
2013-03-11 20:30:00,37.6,30.7,29.99,West,272,0.0,0.0,76,0.00,,---,0.00,VWS V14.01,2013-03-12 01:30:00,
2013-03-11 20:35:00,37.3,30.8,29.99,West,272,0.0,0.0,77,0.00,,---,0.00,VWS V14.01,2013-03-12 01:35:00,
2013-03-11 20:40:00,36.6,30.4,29.99,West,272,0.0,0.0,78,0.00,,---,0.00,VWS V14.01,2013-03-12 01:40:00,
2013-03-11 20:45:00,36.5,30.6,29.99,West,272,0.0,0.0,79,0.00,,---,0.00,VWS V14.01,2013-03-12 01:45:00,
2013-03-11 20:50:00,36.2,30.6,30.00,West,272,0.0,0.0,80,0.00,,---,0.00,VWS V14.01,2013-03-12 01:50:00,
2013-03-11 20:55:00,35.5,29.6,29.99,West,272,0.0,0.0,79,0.00,,---,0.00,VWS V14.01,2013-03-12 01:55:00,
2013-03-11 21:00:00,35.2,29.4,30.00,West,272,0.0,0.0,79,0.00,,---,0.00,VWS V14.01,2013-03-12 02:00:00,
2013-03-11 21:05:00,34.9,29.4,30.00,West,272,0.0,0.0,80,0.00,,---,0.00,VWS V14.01,2013-03-12 02:05:00,
2013-03-11 21:10:00,34.4,28.9,30.00,West,272,0.0,0.0,80,0.00,,---,0.00,VWS V14.01,2013-03-12 02:10:00,
2013-03-11 21:15:00,34.4,28.9,30.00,West,272,0.0,0.0,80,0.00,,---,0.00,VWS V14.01,2013-03-12 02:15:00,
2013-03-11 21:20:00,33.8,28.6,30.01,West,272,0.0,0.0,81,0.00,,---,0.00,VWS V14.01,2013-03-12 02:20:00,
2013-03-11 21:25:00,33.5,28.9,30.01,West,272,0.0,0.0,83,0.00,,---,0.00,VWS V14.01,2013-03-12 02:25:00,
2013-03-11 21:30:00,33.2,28.9,30.01,West,272,0.0,0.0,84,0.00,,---,0.00,VWS V14.01,2013-03-12 02:30:00,
2013-03-11 21:35:00,33.1,28.8,30.01,West,272,0.0,0.0,84,0.00,,---,0.00,VWS V14.01,2013-03-12 02:35:00,
2013-03-11 21:40:00,32.8,28.5,30.02,West,272,0.0,0.0,84,0.00,,---,0.00,VWS V14.01,2013-03-12 02:40:00,
2013-03-11 21:45:00,32.7,28.4,30.02,West,272,0.0,0.0,84,0.00,,---,0.00,VWS V14.01,2013-03-12 02:45:00,
2013-03-11 21:50:00,32.4,28.1,30.02,West,272,0.0,0.0,84,0.00,,---,0.00,VWS V14.01,2013-03-12 02:50:00,
2013-03-11 21:55:00,32.2,28.2,30.03,West,272,0.0,0.0,85,0.00,,---,0.00,VWS V14.01,2013-03-12 02:55:00,
2013-03-11 22:00:00,31.9,27.9,30.03,West,272,0.0,0.0,85,0.00,,---,0.00,VWS V14.01,2013-03-12 03:00:00,
2013-03-11 22:05:00,31.8,27.8,30.03,West,272,0.0,0.0,85,0.00,,---,0.00,VWS V14.01,2013-03-12 03:05:00,
2013-03-11 22:10:00,31.5,27.5,30.03,West,272,0.0,0.0,85,0.00,,---,0.00,VWS V14.01,2013-03-12 03:10:00,
2013-03-11 22:15:00,31.3,27.3,30.03,West,272,0.0,0.0,85,0.00,,---,0.00,VWS V14.01,2013-03-12 03:15:00,
2013-03-11 22:20:00,31.0,27.0,30.03,West,272,0.0,0.0,85,0.00,,---,0.00,VWS V14.01,2013-03-12 03:20:00,
2013-03-11 22:25:00,30.9,26.9,30.03,West,272,0.0,0.0,85,0.00,,---,0.00,VWS V14.01,2013-03-12 03:25:00,
2013-03-11 22:30:00,30.9,27.5,30.04,West,272,0.0,0.0,87,0.00,,---,0.00,VWS V14.01,2013-03-12 03:30:00,
2013-03-11 22:35:00,30.9,27.5,30.04,West,272,0.0,0.0,87,0.00,,---,0.00,VWS V14.01,2013-03-12 03:35:00,
2013-03-11 22:40:00,30.7,27.3,30.04,West,272,0.0,0.0,87,0.00,,---,0.00,VWS V14.01,2013-03-12 03:40:00,
2013-03-11 22:45:00,30.6,27.2,30.04,West,272,0.0,0.0,87,0.00,,---,0.00,VWS V14.01,2013-03-12 03:45:00,
2013-03-11 22:50:00,30.4,27.0,30.05,West,272,0.0,0.0,87,0.00,,---,0.00,VWS V14.01,2013-03-12 03:50:00,
2013-03-11 22:55:00,30.1,26.7,30.05,West,272,0.0,0.0,87,0.00,,---,0.00,VWS V14.01,2013-03-12 03:55:00,
2013-03-11 23:00:00,30.0,26.6,30.05,West,272,0.0,0.0,87,0.00,,---,0.00,VWS V14.01,2013-03-12 04:00:00,
2013-03-11 23:05:00,30.0,26.6,30.05,West,272,0.0,0.0,87,0.00,,---,0.00,VWS V14.01,2013-03-12 04:05:00,
2013-03-11 23:10:00,29.7,26.6,30.05,West,272,0.0,0.0,88,0.00,,---,0.00,VWS V14.01,2013-03-12 04:10:00,
2013-03-11 23:15:00,29.5,26.4,30.05,West,272,0.0,0.0,88,0.00,,---,0.00,VWS V14.01,2013-03-12 04:15:00,
2013-03-11 23:20:00,29.4,26.3,30.05,West,272,0.0,0.0,88,0.00,,---,0.00,VWS V14.01,2013-03-12 04:20:00,
2013-03-11 23:25:00,29.4,26.3,30.05,West,272,0.0,0.0,88,0.00,,---,0.00,VWS V14.01,2013-03-12 04:25:00,
2013-03-11 23:30:00,29.1,26.0,30.05,West,272,0.0,0.0,88,0.00,,---,0.00,VWS V14.01,2013-03-12 04:30:00,
2013-03-11 23:35:00,29.3,26.5,30.05,West,272,0.0,0.0,89,0.00,,---,0.00,VWS V14.01,2013-03-12 04:35:00,
2013-03-11 23:40:00,29.3,26.7,30.06,West,272,0.0,0.0,90,0.00,,---,0.00,VWS V14.01,2013-03-12 04:40:00,
2013-03-11 23:45:00,29.3,26.7,30.06,West,272,0.0,0.0,90,0.00,,---,0.00,VWS V14.01,2013-03-12 04:45:00,
2013-03-11 23:50:00,29.1,26.3,30.05,West,272,0.0,0.0,89,0.00,,---,0.00,VWS V14.01,2013-03-12 04:50:00,
2013-03-11 23:55:00,29.1,26.3,30.05,West,272,0.0,0.0,89,0.00,,---,0.00,VWS V14.01,2013-03-12 04:55:00,